»·PEaware :: FDX1859 KRNO-KBOI

FDX1859 :: KRNO-KBOI

FLIGHT INFORMATION

Flight Status: Arrived
Operator:
Federal Express
More flights by this operator :: More flights under this callsign
Pilot: Anonymous 16342 (16342)
Aircraft: BOEING 757-200
(B752)
More flights by this aircraft type
Origin: KRNO Reno/Tahoe Intl
United States
Destination: KBOI Boise Air Terminal/Gowen
United States
More flights between these airports :: More routes between these airports
Route: +ZEFFR6 BLKJK LLC NEERO SADYL4
File this flight plan on PilotEdge
Remarks:
Altitude:
(Current/Filed)
33,000ft
Speed:
(Current/Filed)
444kts
Departed: 06-Oct-20 05:32 PM
Arrived: 06-Oct-20 06:25 PM
Distance/Time
Traveled:
291nm/0:53
Distance/Time
To Go:
Arrived

Flight Plot

Page will automatically refresh every two minutes.

Flight plan parsing failed; only flown route is shown


Map Options




Map Legend


Flown Route
Filed Route
Departure Airport
Arrival Airport
Navaid (VOR, NDB)
Fix

Horizontal Profiles

Position Reports

Time Latitude Longitude Heading Altitude Ground
Speed
06-Oct-20 17:10 39.509518 -119.773640 360 4425ft 0kts
06-Oct-20 17:11 39.509518 -119.773640 0 4425ft 0kts
06-Oct-20 17:12 39.509518 -119.773640 0 4425ft 0kts
06-Oct-20 17:13 39.509518 -119.773640 0 4425ft 0kts
06-Oct-20 17:14 39.509518 -119.773640 0 4425ft 0kts
06-Oct-20 17:15 39.509518 -119.773640 0 4425ft 0kts
06-Oct-20 17:16 39.509518 -119.773640 0 4425ft 0kts
06-Oct-20 17:17 39.509518 -119.773640 0 4425ft 0kts
06-Oct-20 17:18 39.509518 -119.773640 0 4425ft 0kts
06-Oct-20 17:19 39.509518 -119.773640 0 4425ft 0kts
06-Oct-20 17:20 39.509518 -119.773640 0 4425ft 0kts
06-Oct-20 17:21 39.509353 -119.773652 9 4425ft 2kts
06-Oct-20 17:22 39.508784 -119.774261 81 4425ft 2kts
06-Oct-20 17:23 39.508777 -119.774365 90 4425ft 0kts
06-Oct-20 17:24 39.508777 -119.774365 90 4425ft 0kts
06-Oct-20 17:25 39.508777 -119.774365 90 4425ft 0kts
06-Oct-20 17:26 39.508777 -119.774365 90 4425ft 0kts
06-Oct-20 17:27 39.508777 -119.773626 90 4425ft 7kts
06-Oct-20 17:28 39.510958 -119.771462 1 4425ft 17kts
06-Oct-20 17:29 39.513702 -119.770903 95 4425ft 11kts
06-Oct-20 17:30 39.513648 -119.769796 91 4425ft 10kts
06-Oct-20 17:31 39.501717 -119.769263 179 4426ft 129kts
06-Oct-20 17:32 39.453051 -119.763096 173 6190ft 208kts
06-Oct-20 17:33 39.387820 -119.769857 177 8315ft 262kts
06-Oct-20 17:34 39.312107 -119.749626 137 10838ft 302kts
06-Oct-20 17:35 39.282760 -119.650411 83 14263ft 313kts
06-Oct-20 17:36 39.331171 -119.550807 53 16358ft 356kts
06-Oct-20 17:37 39.400466 -119.451205 41 18595ft 384kts
06-Oct-20 17:38 39.480773 -119.356743 43 19338ft 394kts
06-Oct-20 17:39 39.561925 -119.259391 43 21844ft 403kts
06-Oct-20 17:40 39.645390 -119.159441 44 23895ft 416kts
06-Oct-20 17:41 39.732055 -119.055218 44 25706ft 430kts
06-Oct-20 17:42 39.821197 -118.947665 44 27521ft 438kts
06-Oct-20 17:43 39.910208 -118.839864 44 29452ft 437kts
06-Oct-20 17:44 39.999058 -118.731851 45 31218ft 433kts
06-Oct-20 17:45 40.086354 -118.625318 45 32828ft 428kts
06-Oct-20 17:46 40.192131 -118.557111 16 33168ft 433kts
06-Oct-20 17:47 40.310211 -118.518762 14 33176ft 448kts
06-Oct-20 17:48 40.435737 -118.478517 14 33182ft 479kts
06-Oct-20 17:49 40.566808 -118.436381 14 33181ft 484kts
06-Oct-20 17:50 40.697071 -118.394360 14 33182ft 484kts
06-Oct-20 17:51 40.828137 -118.351899 15 33187ft 484kts
06-Oct-20 17:52 40.958964 -118.309328 15 33187ft 484kts
06-Oct-20 17:53 41.089836 -118.266555 15 33187ft 484kts
06-Oct-20 17:54 41.220635 -118.223612 15 33187ft 484kts
06-Oct-20 17:55 41.351535 -118.180436 15 33187ft 484kts
06-Oct-20 17:56 41.481826 -118.137258 15 33185ft 483kts
06-Oct-20 17:57 41.613011 -118.093553 15 33184ft 484kts
06-Oct-20 17:58 41.743478 -118.049838 15 33182ft 484kts
06-Oct-20 17:59 41.874271 -118.005876 15 33180ft 484kts
06-Oct-20 18:00 42.004351 -117.961747 16 33178ft 483kts
06-Oct-20 18:01 42.134986 -117.917961 15 33176ft 484kts
06-Oct-20 18:02 42.265719 -117.874328 15 33175ft 484kts
06-Oct-20 18:03 42.396756 -117.830345 15 33172ft 483kts
06-Oct-20 18:04 42.497915 -117.733362 55 31581ft 454kts
06-Oct-20 18:05 42.574856 -117.596268 52 29035ft 451kts
06-Oct-20 18:06 42.653044 -117.467134 51 26628ft 437kts
06-Oct-20 18:07 42.728177 -117.341598 51 24564ft 426kts
06-Oct-20 18:08 42.802238 -117.217167 51 22309ft 419kts
06-Oct-20 18:10 42.874552 -117.094206 51 20123ft 411kts
06-Oct-20 18:11 42.945222 -116.973661 51 17972ft 403kts
06-Oct-20 18:12 43.015214 -116.853776 51 15702ft 398kts
06-Oct-20 18:13 43.082525 -116.739108 51 13627ft 366kts
06-Oct-20 18:14 43.143173 -116.636386 51 11782ft 332kts
06-Oct-20 18:15 43.208195 -116.556086 16 10711ft 303kts
06-Oct-20 18:16 43.288518 -116.527430 15 9395ft 290kts
06-Oct-20 18:17 43.365913 -116.496185 15 7841ft 288kts
06-Oct-20 18:18 43.442504 -116.465265 16 6368ft 282kts
06-Oct-20 18:19 43.513174 -116.436019 16 5688ft 239kts
06-Oct-20 18:20 43.572949 -116.411215 16 5239ft 210kts
06-Oct-20 18:21 43.591131 -116.355316 95 4332ft 145kts
06-Oct-20 18:22 43.585483 -116.300670 86 3920ft 150kts
06-Oct-20 18:23 43.571765 -116.247458 114 2985ft 142kts
06-Oct-20 18:24 43.560837 -116.215707 114 2881ft 47kts
06-Oct-20 18:24 43.560732 -116.212368 25 2881ft 0kts
06-Oct-20 18:26 43.562477 -116.211361 343 2881ft 8kts
06-Oct-20 18:27 43.564065 -116.215345 296 2881ft 12kts
06-Oct-20 18:27 43.566608 -116.217421 353 2881ft 14kts

Navigation Log

Ident Type
Flight plan parsing failed, navigation log unavailable